createdAt,value
2019-03-13T00:03:45.784Z,5.70
2019-03-13T00:07:56.728Z,5.00
2019-03-13T00:12:07.090Z,5.13
2019-03-13T00:16:16.853Z,5.40
2019-03-13T00:20:29.076Z,5.10
2019-03-13T00:24:39.432Z,5.83
2019-03-13T00:28:50.188Z,5.80
2019-03-13T00:33:01.305Z,5.87
2019-03-13T00:37:11.223Z,6.47
2019-03-13T00:41:21.123Z,6.93
2019-03-13T00:45:31.860Z,6.17
2019-03-13T00:49:42.223Z,5.63
2019-03-13T00:53:53.323Z,7.13
2019-03-13T00:58:04.266Z,6.23
2019-03-13T01:02:39.755Z,8.17
2019-03-13T01:06:57.314Z,7.40
2019-03-13T01:11:08.482Z,7.90
2019-03-13T01:15:18.546Z,7.90
2019-03-13T01:19:29.387Z,7.97
2019-03-13T01:23:39.611Z,8.00
2019-03-13T01:27:50.571Z,8.20
2019-03-13T01:32:36.727Z,7.40
2019-03-13T01:36:48.543Z,8.17
2019-03-13T01:40:58.901Z,7.10
2019-03-13T01:45:09.480Z,7.13
2019-03-13T01:49:19.840Z,7.53
2019-03-13T01:53:30.779Z,7.07
2019-03-13T01:57:40.824Z,7.20
2019-03-13T02:01:51.396Z,8.27
2019-03-13T02:06:01.842Z,7.37
2019-03-13T02:10:13.202Z,7.70
2019-03-13T02:14:23.629Z,8.23
2019-03-13T02:18:36.522Z,8.83
2019-03-13T02:22:47.126Z,7.57
2019-03-13T02:26:57.909Z,7.30
2019-03-13T02:31:08.199Z,8.93
2019-03-13T02:35:18.711Z,7.87
2019-03-13T02:39:29.158Z,8.43
2019-03-13T02:43:39.878Z,7.10
2019-03-13T02:47:50.565Z,7.17
2019-03-13T02:52:02.286Z,6.50
2019-03-13T02:56:12.899Z,6.17
2019-03-13T03:00:30.293Z,6.70
2019-03-13T03:04:40.530Z,7.00
2019-03-13T03:08:51.036Z,7.90
2019-03-13T03:13:01.141Z,7.10
2019-03-13T03:17:12.625Z,6.17
2019-03-13T03:21:23.216Z,6.57
2019-03-13T03:25:32.785Z,6.87
2019-03-13T03:29:43.197Z,7.80
2019-03-13T03:34:04.854Z,6.30
2019-03-13T03:38:16.438Z,6.80
2019-03-13T03:42:26.636Z,7.10
2019-03-13T03:46:37.142Z,5.73
2019-03-13T03:50:48.134Z,6.30
2019-03-13T03:54:59.396Z,7.13
2019-03-13T03:59:10.121Z,5.97
2019-03-13T04:03:20.738Z,6.10
2019-03-13T04:07:31.401Z,7.37
2019-03-13T04:11:42.224Z,6.67
2019-03-13T04:15:52.723Z,6.30
2019-03-13T04:20:02.833Z,6.03
2019-03-13T04:24:13.633Z,6.60
2019-03-13T04:28:23.938Z,5.73
2019-03-13T04:32:34.871Z,6.10
2019-03-13T04:36:45.196Z,5.60
2019-03-13T04:40:56.229Z,5.87
2019-03-13T04:45:07.288Z,5.60
2019-03-13T04:49:18.895Z,5.60
2019-03-13T04:53:29.867Z,5.37
2019-03-13T04:57:39.983Z,5.20
2019-03-13T05:01:50.751Z,5.03
2019-03-13T05:06:08.011Z,4.73
2019-03-13T05:10:19.037Z,4.70
2019-03-13T05:14:32.562Z,4.50
2019-03-13T05:18:41.199Z,5.00
2019-03-13T05:22:51.473Z,5.47
2019-03-13T05:27:01.854Z,5.40
2019-03-13T05:31:12.315Z,4.43
2019-03-13T05:35:23.935Z,5.40
2019-03-13T05:39:34.933Z,4.73
2019-03-13T05:43:45.564Z,4.53
2019-03-13T05:47:56.305Z,5.07
2019-03-13T05:52:06.873Z,4.60
2019-03-13T05:56:17.685Z,4.47
2019-03-13T06:00:29.385Z,5.17
2019-03-13T06:04:39.745Z,5.20
2019-03-13T06:08:50.075Z,4.80
2019-03-13T06:13:00.519Z,4.97
2019-03-13T06:17:10.774Z,4.73
2019-03-13T06:21:21.216Z,4.53
2019-03-13T06:25:32.133Z,5.20
2019-03-13T06:29:42.590Z,4.53
2019-03-13T06:33:53.016Z,4.37
2019-03-13T06:38:03.701Z,4.60
2019-03-13T06:42:14.014Z,4.57
2019-03-13T06:46:24.484Z,5.63
2019-03-13T06:50:34.793Z,4.80
2019-03-13T06:54:45.953Z,4.40
2019-03-13T06:59:18.226Z,4.60
2019-03-13T07:03:47.821Z,4.13
2019-03-13T07:08:14.167Z,4.67
2019-03-13T07:12:42.365Z,4.10
2019-03-13T07:17:16.613Z,4.37
2019-03-13T07:21:44.037Z,5.20
2019-03-13T07:26:13.052Z,4.33
2019-03-13T07:30:45.177Z,3.67
2019-03-13T07:35:13.599Z,3.90
2019-03-13T07:39:35.328Z,4.87
2019-03-13T07:44:07.044Z,4.27
2019-03-13T07:48:35.358Z,3.87
2019-03-13T07:53:04.332Z,4.97
2019-03-13T07:57:29.140Z,4.27
2019-03-13T08:01:49.369Z,4.30
2019-03-13T08:06:16.361Z,4.50
2019-03-13T08:10:46.626Z,4.20
2019-03-13T08:15:13.588Z,4.73
2019-03-13T08:19:40.322Z,4.20
2019-03-13T08:24:21.118Z,4.00
2019-03-13T08:28:49.592Z,4.00
2019-03-13T08:33:08.494Z,4.37
2019-03-13T08:37:33.285Z,16.73
2019-03-13T08:42:10.193Z,5.87
2019-03-13T08:46:44.330Z,6.23
2019-03-13T08:51:16.367Z,6.70
2019-03-13T08:55:50.768Z,5.73
2019-03-13T09:00:17.064Z,6.07
2019-03-13T09:04:43.922Z,5.27
2019-03-13T09:09:10.620Z,5.40
2019-03-13T09:13:43.333Z,4.60
2019-03-13T09:18:18.412Z,5.20
2019-03-13T09:22:42.052Z,6.37
2019-03-13T09:27:08.674Z,4.90
2019-03-13T09:31:52.512Z,4.90
2019-03-13T09:36:30.268Z,4.40
2019-03-13T09:41:04.089Z,4.57
2019-03-13T09:45:30.820Z,4.83
2019-03-13T09:50:11.155Z,5.77
2019-03-13T09:54:31.226Z,5.13
2019-03-13T09:58:59.716Z,4.97
2019-03-13T10:03:21.835Z,5.50
2019-03-13T10:07:53.297Z,5.60
2019-03-13T10:12:19.806Z,5.23
2019-03-13T10:16:46.884Z,4.90
2019-03-13T10:21:18.524Z,3.97
2019-03-13T10:25:55.390Z,4.80
2019-03-13T10:30:38.675Z,4.20
2019-03-13T10:35:14.118Z,4.50
2019-03-13T10:39:42.291Z,4.47
2019-03-13T10:44:11.403Z,5.43
2019-03-13T10:48:27.231Z,5.23
2019-03-13T10:53:02.653Z,5.37
2019-03-13T10:57:24.199Z,4.83
2019-03-13T11:01:41.592Z,4.67
2019-03-13T11:06:16.027Z,4.70
2019-03-13T11:10:45.697Z,5.17
2019-03-13T11:15:19.509Z,4.90
2019-03-13T11:19:48.175Z,5.00
2019-03-13T11:24:15.784Z,4.27
2019-03-13T11:28:47.085Z,4.43
2019-03-13T11:33:09.230Z,4.73
2019-03-13T11:37:26.048Z,5.23
2019-03-13T11:41:55.887Z,5.10
2019-03-13T11:46:17.948Z,4.97
2019-03-13T11:50:49.826Z,4.77
2019-03-13T11:55:16.620Z,4.20
2019-03-13T11:59:43.774Z,4.00
2019-03-13T12:04:11.885Z,5.13
2019-03-13T12:08:34.926Z,5.10
2019-03-13T12:13:12.647Z,6.63
2019-03-13T12:17:39.186Z,6.60
2019-03-13T12:21:57.947Z,6.50
2019-03-13T12:26:20.286Z,5.43
2019-03-13T12:30:51.432Z,5.30
2019-03-13T12:35:37.778Z,5.60
2019-03-13T12:40:04.082Z,5.70
2019-03-13T12:44:24.387Z,5.20
2019-03-13T12:49:02.024Z,7.60
2019-03-13T12:53:37.186Z,5.00
2019-03-13T12:58:20.944Z,5.70
2019-03-13T13:02:49.869Z,6.60
2019-03-13T13:07:21.809Z,8.27
2019-03-13T13:11:51.303Z,9.57
2019-03-13T13:16:13.400Z,8.20
2019-03-13T13:20:24.241Z,8.00
2019-03-13T13:24:36.047Z,5.77
2019-03-13T13:28:47.275Z,6.47
2019-03-13T13:32:58.897Z,6.80
2019-03-13T13:37:09.715Z,5.60
2019-03-13T13:41:21.714Z,5.80
2019-03-13T13:45:49.880Z,5.40
2019-03-13T13:50:00.205Z,5.00
2019-03-13T13:54:10.910Z,5.23
2019-03-13T13:58:21.676Z,6.23
2019-03-13T14:02:32.471Z,5.93
2019-03-13T14:06:42.631Z,6.70
2019-03-13T14:10:53.347Z,6.13
2019-03-13T14:15:03.940Z,5.93
2019-03-13T14:19:15.413Z,5.60
2019-03-13T14:23:25.795Z,7.33
2019-03-13T14:27:36.601Z,7.70
2019-03-13T14:31:47.454Z,6.77
2019-03-13T14:35:58.864Z,5.77
2019-03-13T14:40:09.489Z,9.70
2019-03-13T14:44:20.347Z,9.00
2019-03-13T14:48:31.295Z,10.20
2019-03-13T14:52:42.092Z,9.60
2019-03-13T14:56:52.430Z,8.40
2019-03-13T15:01:03.269Z,16.40
2019-03-13T15:05:13.593Z,18.97
2019-03-13T15:09:24.175Z,23.00
2019-03-13T15:13:34.337Z,18.80
2019-03-13T15:17:44.556Z,15.87
2019-03-13T15:21:55.134Z,15.50
2019-03-13T15:26:05.546Z,16.97
2019-03-13T15:30:22.258Z,15.83
2019-03-13T15:34:32.743Z,12.77
2019-03-13T15:38:43.598Z,17.20
2019-03-13T15:42:56.292Z,15.07
2019-03-13T15:47:07.343Z,13.13
2019-03-13T15:51:18.878Z,13.53
2019-03-13T15:55:29.030Z,13.93
2019-03-13T15:59:39.534Z,14.00
2019-03-13T16:03:49.940Z,12.97
2019-03-13T16:08:00.536Z,11.40
2019-03-13T16:12:10.959Z,13.30
2019-03-13T16:16:21.805Z,15.03
2019-03-13T16:20:32.324Z,14.70
2019-03-13T16:24:43.095Z,15.57
2019-03-13T16:28:54.009Z,17.73
2019-03-13T16:33:04.833Z,19.20
2019-03-13T16:37:15.185Z,17.23
2019-03-13T16:41:26.165Z,15.87
2019-03-13T16:45:36.791Z,15.97
2019-03-13T16:49:47.717Z,14.97
2019-03-13T16:53:58.052Z,13.17
2019-03-13T16:58:08.987Z,13.40
2019-03-13T17:02:19.509Z,12.47
2019-03-13T17:06:30.215Z,12.03
2019-03-13T17:10:40.333Z,11.63
2019-03-13T17:14:52.002Z,9.80
2019-03-13T17:19:02.361Z,9.50
2019-03-13T17:23:13.530Z,8.57
2019-03-13T17:27:24.740Z,6.60
2019-03-13T17:31:36.128Z,6.53
2019-03-13T17:35:47.237Z,6.13
2019-03-13T17:39:57.875Z,6.27
2019-03-13T17:44:08.682Z,6.27
2019-03-13T17:48:19.575Z,6.60
2019-03-13T17:52:30.120Z,6.07
2019-03-13T17:56:40.237Z,6.10
2019-03-13T18:00:53.485Z,5.87
2019-03-13T18:05:03.236Z,5.60
2019-03-13T18:09:14.181Z,7.07
2019-03-13T18:13:24.297Z,7.20
2019-03-13T18:17:35.214Z,6.03
2019-03-13T18:21:47.210Z,7.07
2019-03-13T18:25:57.892Z,7.97
2019-03-13T18:30:08.994Z,9.47
2019-03-13T18:34:19.776Z,8.60
2019-03-13T18:38:30.819Z,9.80
2019-03-13T18:42:41.954Z,9.87
2019-03-13T18:46:53.047Z,9.60
2019-03-13T18:51:04.399Z,9.13
2019-03-13T18:55:15.810Z,8.87
2019-03-13T18:59:26.958Z,8.67
2019-03-13T19:03:37.729Z,8.00
2019-03-13T19:07:48.458Z,7.90
2019-03-13T19:11:59.085Z,7.00
2019-03-13T19:16:09.504Z,6.83
2019-03-13T19:20:21.336Z,6.37
2019-03-13T19:24:32.660Z,6.40
2019-03-13T19:28:43.221Z,5.93
2019-03-13T19:32:54.205Z,6.60
2019-03-13T19:37:04.594Z,5.70
2019-03-13T19:41:14.760Z,5.73
2019-03-13T19:45:27.919Z,6.43
2019-03-13T19:49:39.505Z,5.60
2019-03-13T19:53:51.576Z,6.90
2019-03-13T19:58:02.017Z,6.60
2019-03-13T20:02:12.404Z,7.40
2019-03-13T20:06:23.202Z,7.73
2019-03-13T20:10:34.287Z,6.87
2019-03-13T20:14:45.366Z,7.03
2019-03-13T20:18:56.169Z,5.97
2019-03-13T20:23:08.018Z,6.67
2019-03-13T20:27:20.842Z,7.40
2019-03-13T20:31:31.951Z,7.37
2019-03-13T20:35:42.570Z,6.77
2019-03-13T20:39:53.195Z,7.73
2019-03-13T20:44:04.012Z,6.70
2019-03-13T20:48:15.726Z,6.23
2019-03-13T20:52:26.019Z,6.93
2019-03-13T20:56:36.606Z,6.00
2019-03-13T21:00:47.543Z,6.53
2019-03-13T21:04:57.982Z,6.37
2019-03-13T21:09:09.717Z,6.57
2019-03-13T21:13:21.630Z,7.83
2019-03-13T21:17:32.393Z,6.80
2019-03-13T21:21:43.114Z,7.30
2019-03-13T21:25:55.649Z,6.50
2019-03-13T21:30:06.588Z,6.13
2019-03-13T21:34:17.777Z,5.23
2019-03-13T21:38:28.389Z,6.30
2019-03-13T21:42:38.888Z,6.10
2019-03-13T21:46:50.581Z,5.90
2019-03-13T21:51:01.403Z,6.60
2019-03-13T21:55:13.165Z,6.53
2019-03-13T21:59:24.607Z,5.30
2019-03-13T22:03:35.069Z,5.83
2019-03-13T22:07:46.045Z,6.60
2019-03-13T22:11:56.666Z,6.30
2019-03-13T22:16:07.135Z,7.03
2019-03-13T22:20:17.951Z,7.77
2019-03-13T22:24:28.629Z,6.53
2019-03-13T22:28:39.207Z,6.17
2019-03-13T22:32:50.262Z,5.87
2019-03-13T22:37:01.128Z,6.60
2019-03-13T22:41:12.229Z,6.87
2019-03-13T22:45:22.330Z,6.20
2019-03-13T22:49:33.046Z,7.37
2019-03-13T22:53:43.726Z,6.70
2019-03-13T22:57:54.035Z,6.80
2019-03-13T23:02:04.622Z,7.73
2019-03-13T23:06:15.428Z,7.50
2019-03-13T23:10:35.197Z,8.63
2019-03-13T23:14:47.348Z,9.40
2019-03-13T23:18:57.138Z,8.80
2019-03-13T23:23:07.671Z,8.47
2019-03-13T23:27:17.786Z,10.10
2019-03-13T23:31:28.766Z,9.17
2019-03-13T23:35:39.590Z,9.27
2019-03-13T23:39:50.670Z,10.77
2019-03-13T23:44:02.265Z,11.50
2019-03-13T23:48:13.489Z,10.57
2019-03-13T23:52:25.860Z,10.30
2019-03-13T23:56:35.916Z,10.70
